Time;durP1;ratioP1;P1;durP2;ratioP2;P2;SDS_P1;SDS_P2;PMS_P1;PMS_P2;Temp;Humidity;BMP_temperature;BMP_pressure;BME280_temperature;BME280_humidity;BME280_pressure;Samples;Min_cycle;Max_cycle;Signal;HPM_P1;HPM_P2
2024/01/20 00:00:26;;;;;;;;;;;-1.80;99.90;;;;;;5060553;28;19936;-75
2024/01/20 00:02:52;;;;;;;;;;;-1.90;99.90;;;;;;5060433;28;19932;-74
2024/01/20 00:05:19;;;;;;;;;;;-1.90;99.90;;;;;;5061609;28;19933;-75
2024/01/20 00:07:45;;;;;;;;;;;-1.90;99.90;;;;;;5061489;28;19936;-75
2024/01/20 00:10:12;;;;;;;;;;;-1.90;99.90;;;;;;5062419;28;20425;-75
2024/01/20 00:12:40;;;;;;;;;;;-1.90;99.90;;;;;;5062077;28;19939;-75
2024/01/20 00:15:08;;;;;;;;;;;-1.90;99.90;;;;;;5061403;28;20702;-75
2024/01/20 00:17:36;;;;;;;;;;;-1.90;99.90;;;;;;5059251;28;19998;-75
2024/01/20 00:20:02;;;;;;;;;;;-1.90;99.90;;;;;;5064764;28;20317;-75
2024/01/20 00:22:29;;;;;;;;;;;-2.00;99.90;;;;;;5064685;28;19933;-75
2024/01/20 00:24:58;;;;;;;;;;;-2.00;99.90;;;;;;5060800;28;19951;-75
2024/01/20 00:27:25;;;;;;;;;;;-2.00;99.90;;;;;;5062074;28;19951;-74
2024/01/20 00:29:53;;;;;;;;;;;-2.00;99.90;;;;;;5062217;28;19935;-75
2024/01/20 00:32:19;;;;;;;;;;;-2.00;99.90;;;;;;5060729;28;19943;-75
2024/01/20 00:34:46;;;;;;;;;;;-2.00;99.90;;;;;;5057769;28;19935;-75
2024/01/20 00:37:13;;;;;;;;;;;-2.00;99.90;;;;;;5061638;28;19932;-74
2024/01/20 00:39:39;;;;;;;;;;;-2.00;99.90;;;;;;5059487;28;19936;-75
2024/01/20 00:42:06;;;;;;;;;;;-2.00;99.90;;;;;;5060180;28;19935;-75
2024/01/20 00:44:32;;;;;;;;;;;-2.10;99.90;;;;;;5060710;28;19928;-75
2024/01/20 00:47:00;;;;;;;;;;;-2.10;99.90;;;;;;5059453;28;19929;-74
2024/01/20 00:49:27;;;;;;;;;;;-2.10;99.90;;;;;;5060427;28;19932;-75
2024/01/20 00:51:53;;;;;;;;;;;-2.10;99.90;;;;;;5058255;28;19932;-74
2024/01/20 00:54:25;;;;;;;;;;;-2.10;99.90;;;;;;5059411;28;19935;-74
2024/01/20 00:56:51;;;;;;;;;;;-2.10;99.90;;;;;;5061562;28;19928;-74
2024/01/20 00:59:18;;;;;;;;;;;-2.10;99.90;;;;;;5062166;28;19936;-74
2024/01/20 01:01:44;;;;;;;;;;;-2.10;99.90;;;;;;5060123;28;19935;-75
2024/01/20 01:04:12;;;;;;;;;;;-2.20;99.90;;;;;;5068023;28;19929;-75
2024/01/20 01:06:39;;;;;;;;;;;-2.20;99.90;;;;;;5062739;28;19935;-74
2024/01/20 01:09:05;;;;;;;;;;;-2.20;99.90;;;;;;5060187;28;19936;-74
2024/01/20 01:11:32;;;;;;;;;;;-2.20;99.90;;;;;;5064962;28;19929;-75
2024/01/20 01:13:58;;;;;;;;;;;-2.20;99.90;;;;;;5061861;28;20374;-74
2024/01/20 01:16:25;;;;;;;;;;;-2.20;99.90;;;;;;5061678;28;19936;-74
2024/01/20 01:18:52;;;;;;;;;;;-2.20;99.90;;;;;;5064096;28;19939;-75
2024/01/20 01:21:19;;;;;;;;;;;-2.20;99.90;;;;;;5061756;28;19932;-75
2024/01/20 01:23:46;;;;;;;;;;;-2.30;99.90;;;;;;5061737;28;19936;-75
2024/01/20 01:26:12;;;;;;;;;;;-2.30;99.90;;;;;;5062371;28;20336;-76
2024/01/20 01:28:39;;;;;;;;;;;-2.30;99.90;;;;;;5063754;28;19928;-74
2024/01/20 01:31:05;;;;;;;;;;;-2.30;99.90;;;;;;5059718;28;19932;-75
2024/01/20 01:33:32;;;;;;;;;;;-2.30;99.90;;;;;;5060243;28;19971;-74
2024/01/20 01:35:59;;;;;;;;;;;-2.30;99.90;;;;;;5064331;28;20212;-74
2024/01/20 01:38:26;;;;;;;;;;;-2.30;99.90;;;;;;5059862;28;20409;-75
2024/01/20 01:40:53;;;;;;;;;;;-2.30;99.90;;;;;;5060066;28;19932;-74
2024/01/20 01:43:19;;;;;;;;;;;-2.40;99.90;;;;;;5064030;28;19947;-74
2024/01/20 01:45:46;;;;;;;;;;;-2.40;99.90;;;;;;5061245;28;19936;-74
2024/01/20 01:48:13;;;;;;;;;;;-2.40;99.90;;;;;;5062870;28;19935;-74
2024/01/20 01:50:39;;;;;;;;;;;-2.40;99.90;;;;;;5057916;28;19932;-74
2024/01/20 01:53:06;;;;;;;;;;;-2.40;99.90;;;;;;5060618;28;19932;-74
2024/01/20 01:55:34;;;;;;;;;;;-2.40;99.90;;;;;;5064921;28;19940;-75
2024/01/20 01:58:02;;;;;;;;;;;-2.40;99.90;;;;;;5059038;28;20011;-74
2024/01/20 02:00:29;;;;;;;;;;;-2.40;99.90;;;;;;5059583;28;19943;-74
2024/01/20 02:02:55;;;;;;;;;;;-2.40;99.90;;;;;;5062592;28;19939;-74
2024/01/20 02:05:22;;;;;;;;;;;-2.50;99.90;;;;;;5059793;28;19939;-74
2024/01/20 02:07:49;;;;;;;;;;;-2.50;99.90;;;;;;5062727;28;19935;-75
2024/01/20 02:10:17;;;;;;;;;;;-2.50;99.90;;;;;;5062804;28;19982;-75
2024/01/20 02:12:45;;;;;;;;;;;-2.50;99.90;;;;;;5061831;28;20527;-74
2024/01/20 02:15:13;;;;;;;;;;;-2.50;99.90;;;;;;5060071;28;19932;-74
2024/01/20 02:17:48;;;;;;;;;;;-2.50;99.90;;;;;;5058223;28;19929;-75
2024/01/20 02:20:15;;;;;;;;;;;-2.50;99.90;;;;;;5055847;28;19933;-75
2024/01/20 02:22:42;;;;;;;;;;;-2.50;99.90;;;;;;5066062;28;19935;-74
2024/01/20 02:25:09;;;;;;;;;;;-2.50;99.90;;;;;;5056643;28;19932;-75
2024/01/20 02:27:35;;;;;;;;;;;-2.60;99.90;;;;;;5062536;28;19935;-75
2024/01/20 02:30:02;;;;;;;;;;;-2.60;99.90;;;;;;5060990;28;19951;-74
2024/01/20 02:32:29;;;;;;;;;;;-2.60;99.90;;;;;;5059466;28;19939;-75
2024/01/20 02:34:55;;;;;;;;;;;-2.60;99.90;;;;;;5062309;28;19935;-74
2024/01/20 02:37:22;;;;;;;;;;;-2.60;99.90;;;;;;5062257;28;19932;-74
2024/01/20 02:39:50;;;;;;;;;;;-2.60;99.90;;;;;;5059252;28;20356;-74
2024/01/20 02:42:16;;;;;;;;;;;-2.60;99.90;;;;;;5064405;28;19994;-75
2024/01/20 02:44:43;;;;;;;;;;;-2.60;99.90;;;;;;5061865;28;20011;-74
2024/01/20 02:47:09;;;;;;;;;;;-2.60;99.90;;;;;;5059357;28;19924;-75
2024/01/20 02:49:36;;;;;;;;;;;-2.60;99.90;;;;;;5060770;28;19937;-74
2024/01/20 02:52:01;;;;;;;;;;;-2.70;99.90;;;;;;5059075;28;19928;-74
2024/01/20 02:54:28;;;;;;;;;;;-2.70;99.90;;;;;;5062658;28;19935;-75
2024/01/20 02:56:56;;;;;;;;;;;-2.70;99.90;;;;;;5059101;28;19928;-75
2024/01/20 02:59:22;;;;;;;;;;;-2.70;99.90;;;;;;5062191;28;19933;-75
2024/01/20 03:01:49;;;;;;;;;;;-2.70;99.90;;;;;;5063747;28;19950;-75
2024/01/20 03:04:16;;;;;;;;;;;-2.70;99.90;;;;;;5064273;28;19983;-74
2024/01/20 03:06:42;;;;;;;;;;;-2.70;99.90;;;;;;5063443;28;20313;-75
2024/01/20 03:09:14;;;;;;;;;;;-2.70;99.90;;;;;;5062048;28;19928;-75
2024/01/20 03:11:41;;;;;;;;;;;-2.70;99.90;;;;;;5064537;28;19928;-75
2024/01/20 03:14:09;;;;;;;;;;;-2.80;99.90;;;;;;5060286;28;20012;-75
2024/01/20 03:16:35;;;;;;;;;;;-2.80;99.90;;;;;;5057835;28;19958;-75
2024/01/20 03:19:02;;;;;;;;;;;-2.80;99.90;;;;;;5062918;28;19941;-75
2024/01/20 03:21:28;;;;;;;;;;;-2.80;99.90;;;;;;5063578;28;19940;-74
2024/01/20 03:23:55;;;;;;;;;;;-2.80;99.90;;;;;;5062553;28;19928;-75
2024/01/20 03:26:22;;;;;;;;;;;-2.80;99.90;;;;;;5060345;28;19932;-75
2024/01/20 03:28:48;;;;;;;;;;;-2.80;99.90;;;;;;5055966;28;20527;-75
2024/01/20 03:31:16;;;;;;;;;;;-2.90;99.90;;;;;;5057242;28;19929;-75
2024/01/20 03:33:43;;;;;;;;;;;-2.90;99.90;;;;;;5061239;28;19928;-75
2024/01/20 03:36:09;;;;;;;;;;;-2.90;99.90;;;;;;5058145;28;19939;-75
2024/01/20 03:38:35;;;;;;;;;;;-2.90;99.90;;;;;;5056684;28;19928;-75
2024/01/20 03:41:02;;;;;;;;;;;-2.90;99.90;;;;;;5059234;28;19932;-75
2024/01/20 03:43:28;;;;;;;;;;;-2.90;99.90;;;;;;5060267;28;20439;-75
2024/01/20 03:45:56;;;;;;;;;;;-2.90;99.90;;;;;;5059885;28;19928;-76
2024/01/20 03:48:24;;;;;;;;;;;-2.90;99.90;;;;;;5059525;28;19932;-75
2024/01/20 03:50:50;;;;;;;;;;;-2.90;99.90;;;;;;5057761;28;19936;-75
2024/01/20 03:53:17;;;;;;;;;;;-3.00;99.90;;;;;;5059867;28;19928;-75
2024/01/20 03:55:43;;;;;;;;;;;-3.00;99.90;;;;;;5064392;28;19978;-75
2024/01/20 03:58:11;;;;;;;;;;;-3.00;99.90;;;;;;5061865;28;19928;-75
2024/01/20 04:00:37;;;;;;;;;;;-3.00;99.90;;;;;;5056242;28;19929;-75
2024/01/20 04:03:04;;;;;;;;;;;-3.00;99.90;;;;;;5062774;28;19939;-76
2024/01/20 04:05:32;;;;;;;;;;;-3.00;99.90;;;;;;5054636;28;20399;-70
2024/01/20 04:07:58;;;;;;;;;;;-3.00;99.90;;;;;;5060750;28;19936;-70
2024/01/20 04:10:25;;;;;;;;;;;-3.10;99.90;;;;;;5059536;28;19940;-70
2024/01/20 04:12:52;;;;;;;;;;;-3.00;99.90;;;;;;5060295;28;19928;-69
2024/01/20 04:15:18;;;;;;;;;;;-3.00;99.90;;;;;;5054896;28;20340;-71
2024/01/20 04:17:45;;;;;;;;;;;-3.10;99.90;;;;;;5057913;28;19936;-70
2024/01/20 04:20:12;;;;;;;;;;;-3.10;99.90;;;;;;5057241;28;19935;-70
2024/01/20 04:22:39;;;;;;;;;;;-3.10;99.90;;;;;;5059642;28;19928;-70
2024/01/20 04:25:07;;;;;;;;;;;-3.10;99.90;;;;;;5061470;28;20378;-70
2024/01/20 04:27:33;;;;;;;;;;;-3.10;99.90;;;;;;5063767;28;19928;-71
2024/01/20 04:30:00;;;;;;;;;;;-3.10;99.90;;;;;;5063349;28;19933;-71
2024/01/20 04:32:27;;;;;;;;;;;-3.10;99.90;;;;;;5061365;28;19939;-70
2024/01/20 04:34:53;;;;;;;;;;;-3.10;99.90;;;;;;5061004;28;20342;-70
2024/01/20 04:37:20;;;;;;;;;;;-3.10;99.90;;;;;;5064498;28;19928;-70
2024/01/20 04:39:48;;;;;;;;;;;-3.10;99.90;;;;;;5061539;28;20378;-70
2024/01/20 04:42:14;;;;;;;;;;;-3.20;99.90;;;;;;5067670;28;19932;-70
2024/01/20 04:44:41;;;;;;;;;;;-3.20;99.90;;;;;;5064713;28;19936;-70
2024/01/20 04:47:07;;;;;;;;;;;-3.10;99.90;;;;;;5064261;28;20552;-70
2024/01/20 04:49:34;;;;;;;;;;;-3.20;99.90;;;;;;5066349;28;19928;-70
2024/01/20 04:52:01;;;;;;;;;;;-3.20;99.90;;;;;;5063667;28;19937;-70
2024/01/20 04:54:28;;;;;;;;;;;-3.20;99.90;;;;;;5064241;28;19932;-70
2024/01/20 04:56:56;;;;;;;;;;;-3.20;99.90;;;;;;5064774;28;20374;-70
2024/01/20 04:59:22;;;;;;;;;;;-3.20;99.90;;;;;;5066373;28;20412;-71
2024/01/20 05:01:49;;;;;;;;;;;-3.20;99.90;;;;;;5063779;28;19928;-70
2024/01/20 05:04:16;;;;;;;;;;;-3.20;99.90;;;;;;5066760;28;19935;-70
2024/01/20 05:06:45;;;;;;;;;;;-3.20;99.90;;;;;;5067773;28;19928;-70
2024/01/20 05:09:12;;;;;;;;;;;-3.20;99.90;;;;;;5063708;28;20303;-70
2024/01/20 05:11:38;;;;;;;;;;;-3.30;99.90;;;;;;5064112;28;19932;-71
2024/01/20 05:14:06;;;;;;;;;;;-3.20;99.90;;;;;;5059032;28;19989;-70
2024/01/20 05:16:33;;;;;;;;;;;-3.30;99.90;;;;;;5067386;28;19962;-70
2024/01/20 05:19:00;;;;;;;;;;;-3.30;99.90;;;;;;5065035;28;19939;-70
2024/01/20 05:21:26;;;;;;;;;;;-3.30;99.90;;;;;;5062263;28;20405;-70
2024/01/20 05:23:53;;;;;;;;;;;-3.30;99.90;;;;;;5065347;28;19932;-70
2024/01/20 05:26:19;;;;;;;;;;;-3.30;99.90;;;;;;5062060;28;19935;-71
2024/01/20 05:28:46;;;;;;;;;;;-3.30;99.90;;;;;;5061717;28;19935;-70
2024/01/20 05:31:14;;;;;;;;;;;-3.30;99.90;;;;;;5062863;28;19933;-70
2024/01/20 05:33:40;;;;;;;;;;;-3.30;99.90;;;;;;5065397;28;19928;-71
2024/01/20 05:36:07;;;;;;;;;;;-3.30;99.90;;;;;;5062967;28;19974;-70
2024/01/20 05:38:33;;;;;;;;;;;-3.30;99.90;;;;;;5067522;28;19932;-70
2024/01/20 05:41:00;;;;;;;;;;;-3.40;99.90;;;;;;5063750;28;19932;-70
2024/01/20 05:43:27;;;;;;;;;;;-3.30;99.90;;;;;;5060208;28;19932;-70
2024/01/20 05:45:53;;;;;;;;;;;-3.30;99.90;;;;;;5065487;28;19936;-71
2024/01/20 05:48:21;;;;;;;;;;;-3.30;99.90;;;;;;5067057;28;19929;-70
2024/01/20 05:50:48;;;;;;;;;;;-3.40;99.90;;;;;;5066406;28;20022;-71
2024/01/20 05:53:14;;;;;;;;;;;-3.40;99.90;;;;;;5061727;28;19928;-70
2024/01/20 05:55:41;;;;;;;;;;;-3.40;99.90;;;;;;5066195;28;19928;-70
2024/01/20 05:58:07;;;;;;;;;;;-3.40;99.90;;;;;;5065347;28;20754;-70
2024/01/20 06:00:34;;;;;;;;;;;-3.40;99.90;;;;;;5061836;28;19936;-70
2024/01/20 06:03:00;;;;;;;;;;;-3.40;99.90;;;;;;5057575;28;19940;-71
2024/01/20 06:05:28;;;;;;;;;;;-3.40;99.90;;;;;;5061306;28;20386;-70
2024/01/20 06:07:55;;;;;;;;;;;-3.40;99.90;;;;;;5066888;28;20394;-70
2024/01/20 06:10:21;;;;;;;;;;;-3.50;99.90;;;;;;5065552;28;20351;-70
2024/01/20 06:12:48;;;;;;;;;;;-3.40;99.90;;;;;;5062442;28;19925;-70
2024/01/20 06:15:15;;;;;;;;;;;-3.40;99.90;;;;;;5063970;28;20329;-70
2024/01/20 06:17:41;;;;;;;;;;;-3.40;99.90;;;;;;5063999;28;19982;-70
2024/01/20 06:20:08;;;;;;;;;;;-3.50;99.90;;;;;;5062448;28;19928;-70
2024/01/20 06:22:39;;;;;;;;;;;-3.50;99.90;;;;;;5065533;28;19928;-70
2024/01/20 06:25:05;;;;;;;;;;;-3.50;99.90;;;;;;5063360;28;20553;-70
2024/01/20 06:27:32;;;;;;;;;;;-3.50;99.90;;;;;;5066794;28;20043;-70
2024/01/20 06:29:59;;;;;;;;;;;-3.50;99.90;;;;;;5064964;28;20040;-70
2024/01/20 06:32:25;;;;;;;;;;;-3.50;99.90;;;;;;5062327;28;20382;-70
2024/01/20 06:34:52;;;;;;;;;;;-3.50;99.90;;;;;;5065188;28;19982;-70
2024/01/20 06:37:18;;;;;;;;;;;-3.50;99.90;;;;;;5062633;28;19936;-70
2024/01/20 06:39:46;;;;;;;;;;;-3.50;99.90;;;;;;5059912;28;19925;-70
2024/01/20 06:42:13;;;;;;;;;;;-3.50;99.90;;;;;;5062482;28;19928;-71
2024/01/20 06:44:40;;;;;;;;;;;-3.50;99.90;;;;;;5059366;28;20281;-70
2024/01/20 06:47:07;;;;;;;;;;;-3.60;99.90;;;;;;5063374;28;19936;-70
2024/01/20 06:49:33;;;;;;;;;;;-3.50;99.90;;;;;;5063553;28;20019;-71
2024/01/20 06:52:00;;;;;;;;;;;-3.60;99.90;;;;;;5062714;28;19955;-70
2024/01/20 06:54:26;;;;;;;;;;;-3.50;99.90;;;;;;5060416;28;19928;-70
2024/01/20 06:56:54;;;;;;;;;;;-3.50;99.90;;;;;;5063074;28;19978;-70
2024/01/20 06:59:21;;;;;;;;;;;-3.50;99.90;;;;;;5061537;28;19939;-70
2024/01/20 07:01:47;;;;;;;;;;;-3.60;99.90;;;;;;5056157;28;20394;-70
2024/01/20 07:04:14;;;;;;;;;;;-3.60;99.90;;;;;;5060999;28;19928;-70
2024/01/20 07:06:40;;;;;;;;;;;-3.60;99.90;;;;;;5056505;28;19933;-70
2024/01/20 07:09:07;;;;;;;;;;;-3.60;99.90;;;;;;5064622;28;19933;-70
2024/01/20 07:11:33;;;;;;;;;;;-3.60;99.90;;;;;;5061694;28;20309;-70
2024/01/20 07:14:01;;;;;;;;;;;-3.60;99.90;;;;;;5059671;28;20195;-70
2024/01/20 07:16:28;;;;;;;;;;;-3.60;99.90;;;;;;5054804;28;19982;-70
2024/01/20 07:18:54;;;;;;;;;;;-3.60;99.90;;;;;;5063107;28;19939;-70
2024/01/20 07:21:21;;;;;;;;;;;-3.60;99.90;;;;;;5061286;28;19940;-70
2024/01/20 07:23:47;;;;;;;;;;;-3.60;99.90;;;;;;5061802;28;19928;-70
2024/01/20 07:26:15;;;;;;;;;;;-3.70;99.90;;;;;;5058991;28;19939;-70
2024/01/20 07:28:41;;;;;;;;;;;-3.60;99.90;;;;;;5058624;28;20661;-70
2024/01/20 07:31:09;;;;;;;;;;;-3.60;99.90;;;;;;5061127;28;19936;-71
2024/01/20 07:33:36;;;;;;;;;;;-3.70;99.90;;;;;;5060487;28;19940;-70
2024/01/20 07:36:03;;;;;;;;;;;-3.70;99.90;;;;;;5059614;28;19932;-70
2024/01/20 07:38:29;;;;;;;;;;;-3.70;99.90;;;;;;5059664;28;19963;-70
2024/01/20 07:40:58;;;;;;;;;;;-3.70;99.90;;;;;;5062541;28;19937;-70
2024/01/20 07:43:24;;;;;;;;;;;-3.70;99.90;;;;;;5060147;28;19928;-71
2024/01/20 07:45:54;;;;;;;;;;;-3.70;99.90;;;;;;5059979;28;19933;-70
2024/01/20 07:48:21;;;;;;;;;;;-4.10;99.90;;;;;;5062768;28;20353;-69
2024/01/20 07:50:48;;;;;;;;;;;-4.20;99.90;;;;;;5062652;28;19936;-69
2024/01/20 07:53:14;;;;;;;;;;;-4.20;99.90;;;;;;5062908;28;19929;-69
2024/01/20 07:55:42;;;;;;;;;;;-4.20;99.90;;;;;;5065598;28;19937;-71
2024/01/20 07:58:08;;;;;;;;;;;-4.20;99.90;;;;;;5059693;28;19928;-70
2024/01/20 08:00:35;;;;;;;;;;;-4.20;99.90;;;;;;5061738;28;19936;-69
2024/01/20 08:03:01;;;;;;;;;;;-4.10;99.90;;;;;;5062897;28;20295;-70
2024/01/20 08:05:31;;;;;;;;;;;-4.10;99.90;;;;;;5058955;28;19928;-69
2024/01/20 08:07:58;;;;;;;;;;;-4.10;99.90;;;;;;5060388;28;20023;-70
2024/01/20 08:10:24;;;;;;;;;;;-4.00;99.90;;;;;;5066252;28;19935;-70
2024/01/20 08:12:53;;;;;;;;;;;-4.00;99.90;;;;;;5067819;28;19956;-71
2024/01/20 08:15:19;;;;;;;;;;;-4.00;99.90;;;;;;5065357;28;20390;-70
2024/01/20 08:17:46;;;;;;;;;;;-4.00;99.90;;;;;;5069445;28;19932;-70
2024/01/20 08:20:12;;;;;;;;;;;-3.90;99.90;;;;;;5068435;28;19928;-72
2024/01/20 08:22:40;;;;;;;;;;;-3.90;99.90;;;;;;5067072;28;20412;-70
2024/01/20 08:25:09;;;;;;;;;;;-3.90;99.90;;;;;;5062981;28;19936;-71
2024/01/20 08:27:36;;;;;;;;;;;-4.00;99.90;;;;;;5062900;28;20569;-70
2024/01/20 08:30:02;;;;;;;;;;;-4.00;99.90;;;;;;5063315;28;19933;-72
2024/01/20 08:32:29;;;;;;;;;;;-4.00;99.90;;;;;;5061721;28;19954;-71
2024/01/20 08:34:55;;;;;;;;;;;-4.00;99.90;;;;;;5058084;28;19935;-72
2024/01/20 08:37:22;;;;;;;;;;;-4.00;99.90;;;;;;5059882;28;19941;-72
2024/01/20 08:39:50;;;;;;;;;;;-4.00;99.90;;;;;;5063815;28;19932;-70
2024/01/20 08:42:17;;;;;;;;;;;-4.00;99.90;;;;;;5064084;28;19928;-71
2024/01/20 08:44:43;;;;;;;;;;;-3.90;99.90;;;;;;5063278;28;19928;-72
2024/01/20 08:47:10;;;;;;;;;;;-3.90;99.90;;;;;;5062391;28;20413;-73
2024/01/20 08:49:36;;;;;;;;;;;-3.80;99.90;;;;;;5063640;28;20397;-71
2024/01/20 08:52:03;;;;;;;;;;;-3.80;99.90;;;;;;5064212;28;20706;-71
2024/01/20 08:54:30;;;;;;;;;;;-3.80;99.90;;;;;;5061502;28;19935;-72
2024/01/20 08:56:58;;;;;;;;;;;-3.70;99.90;;;;;;5064626;28;19939;-71
2024/01/20 08:59:24;;;;;;;;;;;-3.70;99.90;;;;;;5066773;28;20058;-73
2024/01/20 09:01:51;;;;;;;;;;;-3.70;99.90;;;;;;5063439;28;20300;-69
2024/01/20 09:04:17;;;;;;;;;;;-3.60;99.90;;;;;;5062665;28;19928;-71
2024/01/20 09:06:44;;;;;;;;;;;-3.60;99.90;;;;;;5061978;28;19936;-72
2024/01/20 09:09:10;;;;;;;;;;;-3.60;99.90;;;;;;5066402;28;19932;-71
2024/01/20 09:11:37;;;;;;;;;;;-3.60;99.90;;;;;;5063487;28;19929;-73
2024/01/20 09:14:05;;;;;;;;;;;-3.60;99.90;;;;;;5063375;28;19936;-70
2024/01/20 09:16:31;;;;;;;;;;;-3.60;99.90;;;;;;5063695;28;19935;-71
2024/01/20 09:18:58;;;;;;;;;;;-3.50;99.90;;;;;;5061935;28;19928;-71
2024/01/20 09:21:25;;;;;;;;;;;-3.50;99.90;;;;;;5062627;28;20090;-69
2024/01/20 09:23:51;;;;;;;;;;;-3.50;99.90;;;;;;5064315;28;19943;-72
2024/01/20 09:26:18;;;;;;;;;;;-3.50;99.90;;;;;;5060337;28;19943;-71
2024/01/20 09:28:44;;;;;;;;;;;-3.50;99.90;;;;;;5061565;28;20297;-71
2024/01/20 09:31:12;;;;;;;;;;;-3.50;99.90;;;;;;5065660;28;20480;-71
2024/01/20 09:33:39;;;;;;;;;;;-3.40;99.90;;;;;;5060992;28;19925;-71
2024/01/20 09:36:05;;;;;;;;;;;-3.40;99.90;;;;;;5064836;28;19935;-69
2024/01/20 09:38:32;;;;;;;;;;;-3.40;99.90;;;;;;5063266;28;20561;-71
2024/01/20 09:40:58;;;;;;;;;;;-3.40;99.90;;;;;;5063023;28;20389;-72
2024/01/20 09:43:25;;;;;;;;;;;-3.50;99.90;;;;;;5064290;28;19967;-70
2024/01/20 09:45:53;;;;;;;;;;;-3.40;99.90;;;;;;5058182;28;20023;-71
2024/01/20 09:48:21;;;;;;;;;;;-3.40;99.90;;;;;;5061130;28;19954;-71
2024/01/20 09:50:48;;;;;;;;;;;-3.40;99.90;;;;;;5061916;28;19924;-69
2024/01/20 09:53:16;;;;;;;;;;;-3.40;99.90;;;;;;5063524;28;19947;-72
2024/01/20 09:55:42;;;;;;;;;;;-3.30;99.90;;;;;;5064003;28;20378;-69
2024/01/20 09:58:11;;;;;;;;;;;-3.30;99.90;;;;;;5063001;28;20648;-72
2024/01/20 10:00:37;;;;;;;;;;;-3.30;99.90;;;;;;5061879;28;19929;-70
2024/01/20 10:03:05;;;;;;;;;;;-3.30;99.90;;;;;;5063398;28;19936;-71
2024/01/20 10:05:34;;;;;;;;;;;-3.30;99.90;;;;;;5061465;28;20005;-70
2024/01/20 10:08:00;;;;;;;;;;;-3.30;99.90;;;;;;5062058;28;19956;-71
2024/01/20 10:10:27;;;;;;;;;;;-3.20;99.90;;;;;;5064934;28;19935;-71
2024/01/20 10:12:54;;;;;;;;;;;-3.20;99.90;;;;;;5061851;28;19928;-72
2024/01/20 10:15:21;;;;;;;;;;;-3.20;99.90;;;;;;5063085;28;19973;-69
2024/01/20 10:17:48;;;;;;;;;;;-3.10;99.90;;;;;;5062960;28;19928;-71
2024/01/20 10:20:21;;;;;;;;;;;-3.10;99.90;;;;;;5061283;28;20527;-71
2024/01/20 10:22:49;;;;;;;;;;;-3.00;99.90;;;;;;5066231;28;19928;-71
2024/01/20 10:25:19;;;;;;;;;;;-3.00;99.90;;;;;;5063513;28;20028;-72
2024/01/20 10:27:45;;;;;;;;;;;-3.00;99.90;;;;;;5059978;28;19968;-71
2024/01/20 10:30:12;;;;;;;;;;;-2.90;99.90;;;;;;5061660;28;19932;-72
2024/01/20 10:32:40;;;;;;;;;;;-2.90;99.90;;;;;;5055687;28;20015;-73
2024/01/20 10:35:08;;;;;;;;;;;-2.90;99.90;;;;;;5062357;28;20654;-69
2024/01/20 10:37:34;;;;;;;;;;;-2.80;99.90;;;;;;5062154;28;20543;-72
2024/01/20 10:40:03;;;;;;;;;;;-2.80;99.90;;;;;;5064689;28;19929;-71
2024/01/20 10:42:31;;;;;;;;;;;-2.80;99.90;;;;;;5063771;28;20015;-71
2024/01/20 10:45:03;;;;;;;;;;;-2.80;99.90;;;;;;5062172;28;20550;-72
2024/01/20 10:47:33;;;;;;;;;;;-2.70;99.90;;;;;;5060783;28;20032;-71
2024/01/20 10:50:02;;;;;;;;;;;-2.60;99.90;;;;;;5061661;28;20648;-70
2024/01/20 10:52:29;;;;;;;;;;;-2.60;99.90;;;;;;5060303;28;19929;-71
2024/01/20 10:54:55;;;;;;;;;;;-2.50;99.90;;;;;;5062939;28;19924;-71
2024/01/20 10:57:23;;;;;;;;;;;-2.40;99.90;;;;;;5060499;28;19941;-71
2024/01/20 10:59:50;;;;;;;;;;;-2.30;99.90;;;;;;5060968;28;19936;-72
2024/01/20 11:02:17;;;;;;;;;;;-2.20;99.90;;;;;;5059650;28;20677;-72
2024/01/20 11:04:44;;;;;;;;;;;-2.10;99.90;;;;;;5061882;28;20394;-71
2024/01/20 11:07:12;;;;;;;;;;;-2.10;99.90;;;;;;5059791;28;20474;-72
2024/01/20 11:09:39;;;;;;;;;;;-2.00;99.90;;;;;;5061622;28;19966;-72
2024/01/20 11:12:07;;;;;;;;;;;-1.90;99.90;;;;;;5059493;28;19933;-71
2024/01/20 11:14:35;;;;;;;;;;;-1.90;99.90;;;;;;5061468;28;19932;-70
2024/01/20 11:17:11;;;;;;;;;;;-1.80;99.90;;;;;;5060681;28;19929;-72
2024/01/20 11:19:38;;;;;;;;;;;-1.80;99.90;;;;;;5057092;28;20382;-72
2024/01/20 11:22:04;;;;;;;;;;;-1.70;99.90;;;;;;5061094;28;19932;-74
2024/01/20 11:24:38;;;;;;;;;;;-1.70;99.90;;;;;;5062718;28;19939;-72
2024/01/20 11:27:05;;;;;;;;;;;-1.70;99.90;;;;;;5056108;28;21190;-71
2024/01/20 11:29:32;;;;;;;;;;;-1.60;99.90;;;;;;5062706;28;20741;-71
2024/01/20 11:32:00;;;;;;;;;;;-1.60;99.90;;;;;;5062044;28;20392;-70
2024/01/20 11:34:26;;;;;;;;;;;-1.60;99.90;;;;;;5059072;28;20408;-72
2024/01/20 11:36:53;;;;;;;;;;;-1.60;99.90;;;;;;5057953;28;19986;-71
2024/01/20 11:39:21;;;;;;;;;;;-1.60;99.90;;;;;;5060384;28;20014;-72
2024/01/20 11:41:58;;;;;;;;;;;-1.60;99.90;;;;;;5062281;28;20015;-71
2024/01/20 11:44:26;;;;;;;;;;;-1.60;99.90;;;;;;5063409;28;19990;-71
2024/01/20 11:46:53;;;;;;;;;;;-1.60;99.90;;;;;;5064580;28;19972;-73
2024/01/20 11:49:21;;;;;;;;;;;-1.60;99.90;;;;;;5063475;28;20560;-71
2024/01/20 11:51:47;;;;;;;;;;;-1.60;99.90;;;;;;5060317;28;19933;-71
2024/01/20 11:54:15;;;;;;;;;;;-1.60;99.90;;;;;;5056943;28;21375;-71
2024/01/20 11:56:42;;;;;;;;;;;-1.60;99.90;;;;;;5061765;28;19932;-71
2024/01/20 11:59:08;;;;;;;;;;;-1.50;99.90;;;;;;5061588;28;19932;-71
2024/01/20 12:01:36;;;;;;;;;;;-1.50;99.90;;;;;;5060768;28;19955;-70
2024/01/20 12:04:03;;;;;;;;;;;-1.50;99.90;;;;;;5058941;28;19928;-71
2024/01/20 12:06:31;;;;;;;;;;;-1.40;99.90;;;;;;5061604;28;19928;-70
2024/01/20 12:08:57;;;;;;;;;;;-1.40;99.90;;;;;;5061057;28;19936;-72
2024/01/20 12:11:25;;;;;;;;;;;-1.40;99.90;;;;;;5061264;28;20271;-71
2024/01/20 12:13:51;;;;;;;;;;;-1.30;99.90;;;;;;5059858;28;20009;-70
2024/01/20 12:16:18;;;;;;;;;;;-1.30;99.90;;;;;;5059238;28;20007;-72
2024/01/20 12:18:44;;;;;;;;;;;-1.20;99.90;;;;;;5061352;28;19932;-70
2024/01/20 12:21:11;;;;;;;;;;;-1.20;99.90;;;;;;5058147;28;19936;-71
2024/01/20 12:23:39;;;;;;;;;;;-1.10;99.90;;;;;;5061151;28;20808;-71
2024/01/20 12:26:11;;;;;;;;;;;-1.00;99.90;;;;;;5058577;28;19995;-71
2024/01/20 12:28:38;;;;;;;;;;;-1.00;99.90;;;;;;5061653;28;19928;-71
2024/01/20 12:31:04;;;;;;;;;;;-0.90;99.90;;;;;;5058916;28;19928;-71
2024/01/20 12:33:31;;;;;;;;;;;-0.90;99.90;;;;;;5061492;28;19932;-73
2024/01/20 12:35:58;;;;;;;;;;;-0.80;99.90;;;;;;5060562;28;19924;-71
2024/01/20 12:38:24;;;;;;;;;;;-0.70;99.90;;;;;;5060238;28;19928;-71
2024/01/20 12:40:52;;;;;;;;;;;-0.70;99.90;;;;;;5061777;28;20033;-71
2024/01/20 12:43:19;;;;;;;;;;;-0.60;99.90;;;;;;5059939;28;19935;-71
2024/01/20 12:45:46;;;;;;;;;;;-0.50;99.90;;;;;;5059500;28;19928;-71
2024/01/20 12:48:13;;;;;;;;;;;-0.50;99.90;;;;;;5060976;28;19952;-71
2024/01/20 12:50:39;;;;;;;;;;;-0.30;99.90;;;;;;5059003;28;19936;-74
2024/01/20 12:53:06;;;;;;;;;;;-0.30;99.90;;;;;;5061229;28;19939;-71
2024/01/20 12:55:33;;;;;;;;;;;-0.30;99.90;;;;;;5058864;28;20002;-71
2024/01/20 12:58:01;;;;;;;;;;;-0.20;99.90;;;;;;5064216;28;19928;-72
2024/01/20 13:00:27;;;;;;;;;;;-0.20;99.90;;;;;;5066964;28;19928;-72
2024/01/20 13:02:54;;;;;;;;;;;-0.10;99.90;;;;;;5062520;28;20309;-70
2024/01/20 13:05:20;;;;;;;;;;;-0.10;99.90;;;;;;5061317;28;20405;-72
2024/01/20 13:07:47;;;;;;;;;;;0.00;99.90;;;;;;5065600;28;19932;-74
2024/01/20 13:10:13;;;;;;;;;;;0.00;99.90;;;;;;5062816;28;19932;-71
2024/01/20 13:12:40;;;;;;;;;;;0.00;99.90;;;;;;5064001;28;19928;-72
2024/01/20 13:15:08;;;;;;;;;;;0.00;99.90;;;;;;5065144;28;19936;-72
2024/01/20 13:17:35;;;;;;;;;;;0.00;99.90;;;;;;5063127;28;19974;-72
2024/01/20 13:20:02;;;;;;;;;;;0.10;99.90;;;;;;5062798;28;20832;-72
2024/01/20 13:22:28;;;;;;;;;;;0.10;99.90;;;;;;5065949;28;20321;-71
2024/01/20 13:24:57;;;;;;;;;;;0.10;99.90;;;;;;5065098;28;19935;-71
2024/01/20 13:27:24;;;;;;;;;;;0.10;99.90;;;;;;5065129;28;20025;-72
2024/01/20 13:29:50;;;;;;;;;;;0.10;99.90;;;;;;5065446;28;19968;-72
2024/01/20 13:32:18;;;;;;;;;;;0.20;99.90;;;;;;5063459;28;19933;-71
2024/01/20 13:34:44;;;;;;;;;;;0.20;99.90;;;;;;5064643;28;19933;-71
2024/01/20 13:37:11;;;;;;;;;;;0.20;99.90;;;;;;5062831;28;19970;-72
2024/01/20 13:39:38;;;;;;;;;;;0.20;99.90;;;;;;5060357;28;19940;-70
2024/01/20 13:42:05;;;;;;;;;;;0.20;99.90;;;;;;5060893;28;20086;-72
2024/01/20 13:44:31;;;;;;;;;;;0.20;99.90;;;;;;5063238;28;20389;-72
2024/01/20 13:46:58;;;;;;;;;;;0.20;99.90;;;;;;5062175;28;19933;-71
2024/01/20 13:49:26;;;;;;;;;;;0.20;99.90;;;;;;5061203;28;19940;-72
2024/01/20 13:51:52;;;;;;;;;;;0.30;99.90;;;;;;5062376;28;19936;-71
2024/01/20 13:54:19;;;;;;;;;;;0.30;99.90;;;;;;5061276;28;19928;-72
2024/01/20 13:56:45;;;;;;;;;;;0.30;99.90;;;;;;5062211;28;19978;-72
2024/01/20 13:59:12;;;;;;;;;;;0.40;99.90;;;;;;5062962;28;20589;-71
2024/01/20 14:01:38;;;;;;;;;;;0.40;99.90;;;;;;5061544;28;19928;-73
2024/01/20 14:04:05;;;;;;;;;;;0.50;99.90;;;;;;5058144;28;19990;-73
2024/01/20 14:06:33;;;;;;;;;;;0.50;99.90;;;;;;5058923;28;20800;-71
2024/01/20 14:08:59;;;;;;;;;;;0.60;99.90;;;;;;5061727;28;19980;-72
2024/01/20 14:11:27;;;;;;;;;;;0.60;99.90;;;;;;5058593;28;19995;-71
2024/01/20 14:13:53;;;;;;;;;;;0.70;99.90;;;;;;5062026;28;20062;-72
2024/01/20 14:16:20;;;;;;;;;;;0.70;99.90;;;;;;5059973;28;19996;-73